sensor_id;sensor_type;location;lat;lon;timestamp;P1;durP1;ratioP1;P2;durP2;ratioP2
25341;SDS011;13298;48.792;9.154;2023-05-07T00:01:40;2.55;;;2.05;;
25341;SDS011;13298;48.792;9.154;2023-05-07T00:04:06;3.13;;;2.22;;
25341;SDS011;13298;48.792;9.154;2023-05-07T00:06:32;3.25;;;2.40;;
25341;SDS011;13298;48.792;9.154;2023-05-07T00:08:58;4.40;;;2.90;;
25341;SDS011;13298;48.792;9.154;2023-05-07T00:11:24;5.50;;;3.13;;
25341;SDS011;13298;48.792;9.154;2023-05-07T00:13:50;5.47;;;3.22;;
25341;SDS011;13298;48.792;9.154;2023-05-07T00:16:16;5.28;;;3.53;;
25341;SDS011;13298;48.792;9.154;2023-05-07T00:18:42;4.65;;;3.13;;
25341;SDS011;13298;48.792;9.154;2023-05-07T00:21:08;5.68;;;2.92;;
25341;SDS011;13298;48.792;9.154;2023-05-07T00:23:33;5.18;;;3.20;;
25341;SDS011;13298;48.792;9.154;2023-05-07T00:25:59;5.43;;;3.20;;
25341;SDS011;13298;48.792;9.154;2023-05-07T00:28:25;7.40;;;2.95;;
25341;SDS011;13298;48.792;9.154;2023-05-07T00:30:51;4.50;;;3.10;;
25341;SDS011;13298;48.792;9.154;2023-05-07T00:33:16;3.80;;;2.78;;
25341;SDS011;13298;48.792;9.154;2023-05-07T00:35:42;4.10;;;2.95;;
25341;SDS011;13298;48.792;9.154;2023-05-07T00:38:08;5.43;;;3.05;;
25341;SDS011;13298;48.792;9.154;2023-05-07T00:40:33;4.63;;;3.28;;
25341;SDS011;13298;48.792;9.154;2023-05-07T00:42:59;4.63;;;3.33;;
25341;SDS011;13298;48.792;9.154;2023-05-07T00:45:26;4.53;;;3.50;;
25341;SDS011;13298;48.792;9.154;2023-05-07T00:47:54;4.57;;;3.42;;
25341;SDS011;13298;48.792;9.154;2023-05-07T00:50:24;4.73;;;3.40;;
25341;SDS011;13298;48.792;9.154;2023-05-07T00:52:51;5.35;;;3.40;;
25341;SDS011;13298;48.792;9.154;2023-05-07T00:55:18;5.80;;;3.50;;
25341;SDS011;13298;48.792;9.154;2023-05-07T00:57:44;6.28;;;3.72;;
25341;SDS011;13298;48.792;9.154;2023-05-07T01:00:10;5.60;;;3.28;;
25341;SDS011;13298;48.792;9.154;2023-05-07T01:02:38;5.60;;;3.25;;
25341;SDS011;13298;48.792;9.154;2023-05-07T01:05:04;5.53;;;3.10;;
25341;SDS011;13298;48.792;9.154;2023-05-07T01:07:36;5.22;;;3.35;;
25341;SDS011;13298;48.792;9.154;2023-05-07T01:10:04;6.03;;;3.38;;
25341;SDS011;13298;48.792;9.154;2023-05-07T01:12:31;4.75;;;3.55;;
25341;SDS011;13298;48.792;9.154;2023-05-07T01:14:58;5.22;;;3.50;;
25341;SDS011;13298;48.792;9.154;2023-05-07T01:17:24;5.68;;;3.67;;
25341;SDS011;13298;48.792;9.154;2023-05-07T01:19:49;5.38;;;3.35;;
25341;SDS011;13298;48.792;9.154;2023-05-07T01:22:16;4.72;;;3.42;;
25341;SDS011;13298;48.792;9.154;2023-05-07T01:24:57;5.45;;;3.35;;
25341;SDS011;13298;48.792;9.154;2023-05-07T01:27:24;7.07;;;3.78;;
25341;SDS011;13298;48.792;9.154;2023-05-07T01:29:50;6.03;;;3.58;;
25341;SDS011;13298;48.792;9.154;2023-05-07T01:32:16;5.18;;;3.38;;
25341;SDS011;13298;48.792;9.154;2023-05-07T01:34:48;5.68;;;3.58;;
25341;SDS011;13298;48.792;9.154;2023-05-07T01:37:15;6.00;;;4.03;;
25341;SDS011;13298;48.792;9.154;2023-05-07T01:39:55;4.40;;;3.55;;
25341;SDS011;13298;48.792;9.154;2023-05-07T01:42:21;4.05;;;3.30;;
25341;SDS011;13298;48.792;9.154;2023-05-07T01:44:47;5.45;;;3.67;;
25341;SDS011;13298;48.792;9.154;2023-05-07T01:47:13;5.90;;;3.53;;
25341;SDS011;13298;48.792;9.154;2023-05-07T01:49:39;4.45;;;3.28;;
25341;SDS011;13298;48.792;9.154;2023-05-07T01:52:07;5.28;;;3.30;;
25341;SDS011;13298;48.792;9.154;2023-05-07T01:54:33;5.05;;;3.55;;
25341;SDS011;13298;48.792;9.154;2023-05-07T01:56:59;6.32;;;3.47;;
25341;SDS011;13298;48.792;9.154;2023-05-07T01:59:25;6.15;;;3.78;;
25341;SDS011;13298;48.792;9.154;2023-05-07T02:01:50;5.50;;;3.55;;
25341;SDS011;13298;48.792;9.154;2023-05-07T02:04:16;4.03;;;3.28;;
25341;SDS011;13298;48.792;9.154;2023-05-07T02:06:42;5.20;;;3.53;;
25341;SDS011;13298;48.792;9.154;2023-05-07T02:09:08;4.10;;;3.08;;
25341;SDS011;13298;48.792;9.154;2023-05-07T02:11:34;4.95;;;3.17;;
25341;SDS011;13298;48.792;9.154;2023-05-07T02:14:00;5.10;;;3.20;;
25341;SDS011;13298;48.792;9.154;2023-05-07T02:16:25;3.90;;;3.10;;
25341;SDS011;13298;48.792;9.154;2023-05-07T02:18:51;4.85;;;3.13;;
25341;SDS011;13298;48.792;9.154;2023-05-07T02:21:17;3.33;;;2.80;;
25341;SDS011;13298;48.792;9.154;2023-05-07T02:23:43;4.20;;;3.03;;
25341;SDS011;13298;48.792;9.154;2023-05-07T02:26:08;5.97;;;2.67;;
25341;SDS011;13298;48.792;9.154;2023-05-07T02:28:35;4.82;;;3.05;;
25341;SDS011;13298;48.792;9.154;2023-05-07T02:31:04;3.47;;;2.30;;
25341;SDS011;13298;48.792;9.154;2023-05-07T02:33:30;4.50;;;3.00;;
25341;SDS011;13298;48.792;9.154;2023-05-07T02:35:55;3.70;;;2.72;;
25341;SDS011;13298;48.792;9.154;2023-05-07T02:38:21;6.93;;;3.53;;
25341;SDS011;13298;48.792;9.154;2023-05-07T02:40:48;4.30;;;3.13;;
25341;SDS011;13298;48.792;9.154;2023-05-07T02:43:14;3.88;;;2.67;;
25341;SDS011;13298;48.792;9.154;2023-05-07T02:45:39;4.53;;;2.90;;
25341;SDS011;13298;48.792;9.154;2023-05-07T02:48:05;5.05;;;3.35;;
25341;SDS011;13298;48.792;9.154;2023-05-07T02:50:31;4.45;;;3.25;;
25341;SDS011;13298;48.792;9.154;2023-05-07T02:52:57;4.40;;;2.85;;
25341;SDS011;13298;48.792;9.154;2023-05-07T02:55:23;5.03;;;3.53;;
25341;SDS011;13298;48.792;9.154;2023-05-07T02:57:49;4.45;;;3.25;;
25341;SDS011;13298;48.792;9.154;2023-05-07T03:00:16;4.50;;;3.63;;
25341;SDS011;13298;48.792;9.154;2023-05-07T03:02:43;6.05;;;3.65;;
25341;SDS011;13298;48.792;9.154;2023-05-07T03:05:10;5.63;;;3.65;;
25341;SDS011;13298;48.792;9.154;2023-05-07T03:07:36;4.55;;;3.70;;
25341;SDS011;13298;48.792;9.154;2023-05-07T03:10:02;7.20;;;3.85;;
25341;SDS011;13298;48.792;9.154;2023-05-07T03:12:29;4.63;;;3.60;;
25341;SDS011;13298;48.792;9.154;2023-05-07T03:14:55;6.47;;;3.70;;
25341;SDS011;13298;48.792;9.154;2023-05-07T03:17:21;5.53;;;3.50;;
25341;SDS011;13298;48.792;9.154;2023-05-07T03:19:47;5.43;;;3.40;;
25341;SDS011;13298;48.792;9.154;2023-05-07T03:22:12;5.07;;;3.20;;
25341;SDS011;13298;48.792;9.154;2023-05-07T03:24:38;4.95;;;3.78;;
25341;SDS011;13298;48.792;9.154;2023-05-07T03:27:04;4.78;;;3.75;;
25341;SDS011;13298;48.792;9.154;2023-05-07T03:29:29;5.18;;;3.70;;
25341;SDS011;13298;48.792;9.154;2023-05-07T03:31:55;5.90;;;3.33;;
25341;SDS011;13298;48.792;9.154;2023-05-07T03:34:21;4.88;;;3.35;;
25341;SDS011;13298;48.792;9.154;2023-05-07T03:36:50;4.72;;;3.05;;
25341;SDS011;13298;48.792;9.154;2023-05-07T03:39:16;4.85;;;3.17;;
25341;SDS011;13298;48.792;9.154;2023-05-07T03:41:42;4.50;;;3.20;;
25341;SDS011;13298;48.792;9.154;2023-05-07T03:44:07;3.85;;;3.03;;
25341;SDS011;13298;48.792;9.154;2023-05-07T03:46:33;4.38;;;2.95;;
25341;SDS011;13298;48.792;9.154;2023-05-07T03:48:59;4.32;;;3.17;;
25341;SDS011;13298;48.792;9.154;2023-05-07T03:51:25;5.25;;;3.42;;
25341;SDS011;13298;48.792;9.154;2023-05-07T03:53:51;5.22;;;3.35;;
25341;SDS011;13298;48.792;9.154;2023-05-07T03:56:22;5.13;;;3.33;;
25341;SDS011;13298;48.792;9.154;2023-05-07T03:58:51;7.45;;;3.88;;
25341;SDS011;13298;48.792;9.154;2023-05-07T04:01:17;5.55;;;3.67;;
25341;SDS011;13298;48.792;9.154;2023-05-07T04:03:43;4.80;;;3.30;;
25341;SDS011;13298;48.792;9.154;2023-05-07T04:06:08;4.15;;;3.20;;
25341;SDS011;13298;48.792;9.154;2023-05-07T04:08:34;4.90;;;4.03;;
25341;SDS011;13298;48.792;9.154;2023-05-07T04:11:00;4.82;;;3.45;;
25341;SDS011;13298;48.792;9.154;2023-05-07T04:13:26;4.93;;;3.20;;
25341;SDS011;13298;48.792;9.154;2023-05-07T04:15:52;6.70;;;3.75;;
25341;SDS011;13298;48.792;9.154;2023-05-07T04:18:18;5.68;;;3.75;;
25341;SDS011;13298;48.792;9.154;2023-05-07T04:20:44;7.45;;;3.70;;
25341;SDS011;13298;48.792;9.154;2023-05-07T04:23:10;5.15;;;3.20;;
25341;SDS011;13298;48.792;9.154;2023-05-07T04:25:36;5.78;;;3.78;;
25341;SDS011;13298;48.792;9.154;2023-05-07T04:28:02;4.60;;;3.40;;
25341;SDS011;13298;48.792;9.154;2023-05-07T04:30:27;4.43;;;3.78;;
25341;SDS011;13298;48.792;9.154;2023-05-07T04:32:53;4.97;;;3.53;;
25341;SDS011;13298;48.792;9.154;2023-05-07T04:35:19;4.78;;;3.88;;
25341;SDS011;13298;48.792;9.154;2023-05-07T04:37:44;6.70;;;3.80;;
25341;SDS011;13298;48.792;9.154;2023-05-07T04:40:10;5.43;;;3.53;;
25341;SDS011;13298;48.792;9.154;2023-05-07T04:42:36;4.78;;;3.60;;
25341;SDS011;13298;48.792;9.154;2023-05-07T04:45:02;6.85;;;3.67;;
25341;SDS011;13298;48.792;9.154;2023-05-07T04:47:29;7.28;;;4.10;;
25341;SDS011;13298;48.792;9.154;2023-05-07T04:49:55;4.78;;;3.75;;
25341;SDS011;13298;48.792;9.154;2023-05-07T04:52:22;6.07;;;3.67;;
25341;SDS011;13298;48.792;9.154;2023-05-07T04:54:47;6.25;;;4.03;;
25341;SDS011;13298;48.792;9.154;2023-05-07T04:57:13;6.82;;;3.60;;
25341;SDS011;13298;48.792;9.154;2023-05-07T04:59:39;4.35;;;2.97;;
25341;SDS011;13298;48.792;9.154;2023-05-07T05:02:05;4.75;;;3.10;;
25341;SDS011;13298;48.792;9.154;2023-05-07T05:04:30;5.55;;;2.95;;
25341;SDS011;13298;48.792;9.154;2023-05-07T05:06:56;7.63;;;3.75;;
25341;SDS011;13298;48.792;9.154;2023-05-07T05:09:22;7.60;;;3.92;;
25341;SDS011;13298;48.792;9.154;2023-05-07T05:11:48;5.25;;;3.55;;
25341;SDS011;13298;48.792;9.154;2023-05-07T05:14:14;6.97;;;3.30;;
25341;SDS011;13298;48.792;9.154;2023-05-07T05:16:39;4.50;;;3.53;;
25341;SDS011;13298;48.792;9.154;2023-05-07T05:19:05;5.30;;;3.70;;
25341;SDS011;13298;48.792;9.154;2023-05-07T05:21:31;4.93;;;3.75;;
25341;SDS011;13298;48.792;9.154;2023-05-07T05:23:57;5.45;;;4.00;;
25341;SDS011;13298;48.792;9.154;2023-05-07T05:26:23;7.20;;;4.10;;
25341;SDS011;13298;48.792;9.154;2023-05-07T05:28:49;4.45;;;3.55;;
25341;SDS011;13298;48.792;9.154;2023-05-07T05:31:15;4.75;;;3.08;;
25341;SDS011;13298;48.792;9.154;2023-05-07T05:33:41;4.22;;;3.53;;
25341;SDS011;13298;48.792;9.154;2023-05-07T05:36:09;4.97;;;3.78;;
25341;SDS011;13298;48.792;9.154;2023-05-07T05:38:35;5.22;;;3.35;;
25341;SDS011;13298;48.792;9.154;2023-05-07T05:41:01;4.57;;;3.63;;
25341;SDS011;13298;48.792;9.154;2023-05-07T05:43:27;4.63;;;3.67;;
25341;SDS011;13298;48.792;9.154;2023-05-07T05:45:52;6.38;;;4.05;;
25341;SDS011;13298;48.792;9.154;2023-05-07T05:48:18;6.45;;;3.67;;
25341;SDS011;13298;48.792;9.154;2023-05-07T05:50:44;6.65;;;3.55;;
25341;SDS011;13298;48.792;9.154;2023-05-07T05:53:10;5.13;;;3.25;;
25341;SDS011;13298;48.792;9.154;2023-05-07T05:55:36;4.47;;;2.95;;
25341;SDS011;13298;48.792;9.154;2023-05-07T05:58:01;4.57;;;3.20;;
25341;SDS011;13298;48.792;9.154;2023-05-07T06:00:27;4.15;;;3.28;;
25341;SDS011;13298;48.792;9.154;2023-05-07T06:02:54;4.82;;;3.13;;
25341;SDS011;13298;48.792;9.154;2023-05-07T06:05:19;6.07;;;3.50;;
25341;SDS011;13298;48.792;9.154;2023-05-07T06:07:45;3.97;;;3.03;;
25341;SDS011;13298;48.792;9.154;2023-05-07T06:10:11;3.70;;;3.05;;
25341;SDS011;13298;48.792;9.154;2023-05-07T06:12:36;5.78;;;3.63;;
25341;SDS011;13298;48.792;9.154;2023-05-07T06:15:02;5.03;;;3.20;;
25341;SDS011;13298;48.792;9.154;2023-05-07T06:17:28;5.03;;;3.25;;
25341;SDS011;13298;48.792;9.154;2023-05-07T06:19:55;4.55;;;3.10;;
25341;SDS011;13298;48.792;9.154;2023-05-07T06:22:21;4.05;;;2.67;;
25341;SDS011;13298;48.792;9.154;2023-05-07T06:24:46;3.90;;;2.35;;
25341;SDS011;13298;48.792;9.154;2023-05-07T06:27:12;4.13;;;2.92;;
25341;SDS011;13298;48.792;9.154;2023-05-07T06:29:38;4.03;;;2.55;;
25341;SDS011;13298;48.792;9.154;2023-05-07T06:32:07;6.07;;;2.97;;
25341;SDS011;13298;48.792;9.154;2023-05-07T06:34:33;3.70;;;2.97;;
25341;SDS011;13298;48.792;9.154;2023-05-07T06:39:24;6.22;;;3.00;;
25341;SDS011;13298;48.792;9.154;2023-05-07T06:41:50;3.15;;;2.70;;
25341;SDS011;13298;48.792;9.154;2023-05-07T06:44:16;3.97;;;2.95;;
25341;SDS011;13298;48.792;9.154;2023-05-07T06:46:41;4.35;;;3.45;;
25341;SDS011;13298;48.792;9.154;2023-05-07T06:49:07;5.82;;;3.47;;
25341;SDS011;13298;48.792;9.154;2023-05-07T06:51:33;5.53;;;3.90;;
25341;SDS011;13298;48.792;9.154;2023-05-07T06:53:59;5.18;;;3.60;;
25341;SDS011;13298;48.792;9.154;2023-05-07T06:56:24;5.93;;;3.63;;
25341;SDS011;13298;48.792;9.154;2023-05-07T06:58:50;5.00;;;3.38;;
25341;SDS011;13298;48.792;9.154;2023-05-07T07:01:16;4.90;;;3.50;;
25341;SDS011;13298;48.792;9.154;2023-05-07T07:03:42;3.55;;;2.85;;
25341;SDS011;13298;48.792;9.154;2023-05-07T07:06:07;4.90;;;3.47;;
25341;SDS011;13298;48.792;9.154;2023-05-07T07:08:33;5.90;;;3.38;;
25341;SDS011;13298;48.792;9.154;2023-05-07T07:10:59;6.60;;;3.47;;
25341;SDS011;13298;48.792;9.154;2023-05-07T07:13:25;6.18;;;3.65;;
25341;SDS011;13298;48.792;9.154;2023-05-07T07:15:51;5.05;;;3.30;;
25341;SDS011;13298;48.792;9.154;2023-05-07T07:18:18;4.53;;;3.25;;
25341;SDS011;13298;48.792;9.154;2023-05-07T07:20:43;3.50;;;3.17;;
25341;SDS011;13298;48.792;9.154;2023-05-07T07:23:09;3.20;;;2.72;;
25341;SDS011;13298;48.792;9.154;2023-05-07T07:25:35;3.42;;;2.47;;
25341;SDS011;13298;48.792;9.154;2023-05-07T07:28:01;5.05;;;2.70;;
25341;SDS011;13298;48.792;9.154;2023-05-07T07:30:26;5.80;;;3.03;;
25341;SDS011;13298;48.792;9.154;2023-05-07T07:32:52;4.10;;;3.00;;
25341;SDS011;13298;48.792;9.154;2023-05-07T07:35:18;4.00;;;2.55;;
25341;SDS011;13298;48.792;9.154;2023-05-07T07:37:44;3.33;;;2.88;;
25341;SDS011;13298;48.792;9.154;2023-05-07T07:40:10;3.88;;;2.75;;
25341;SDS011;13298;48.792;9.154;2023-05-07T07:42:37;6.57;;;3.40;;
25341;SDS011;13298;48.792;9.154;2023-05-07T07:45:02;5.63;;;3.13;;
25341;SDS011;13298;48.792;9.154;2023-05-07T07:47:29;5.55;;;3.30;;
25341;SDS011;13298;48.792;9.154;2023-05-07T07:49:54;3.80;;;3.28;;
25341;SDS011;13298;48.792;9.154;2023-05-07T07:52:20;4.47;;;3.60;;
25341;SDS011;13298;48.792;9.154;2023-05-07T07:54:46;4.53;;;2.80;;
25341;SDS011;13298;48.792;9.154;2023-05-07T07:57:11;5.20;;;3.28;;
25341;SDS011;13298;48.792;9.154;2023-05-07T07:59:37;4.63;;;3.50;;
25341;SDS011;13298;48.792;9.154;2023-05-07T08:02:03;4.68;;;3.55;;
25341;SDS011;13298;48.792;9.154;2023-05-07T08:04:28;4.00;;;3.15;;
25341;SDS011;13298;48.792;9.154;2023-05-07T08:06:55;3.95;;;3.03;;
25341;SDS011;13298;48.792;9.154;2023-05-07T08:09:20;4.50;;;3.17;;
25341;SDS011;13298;48.792;9.154;2023-05-07T08:11:46;4.55;;;3.03;;
25341;SDS011;13298;48.792;9.154;2023-05-07T08:14:12;5.30;;;2.95;;
25341;SDS011;13298;48.792;9.154;2023-05-07T08:16:38;3.58;;;2.95;;
25341;SDS011;13298;48.792;9.154;2023-05-07T08:19:03;4.45;;;3.25;;
25341;SDS011;13298;48.792;9.154;2023-05-07T08:21:29;4.43;;;3.22;;
25341;SDS011;13298;48.792;9.154;2023-05-07T08:23:55;3.00;;;2.58;;
25341;SDS011;13298;48.792;9.154;2023-05-07T08:26:21;3.97;;;2.63;;
25341;SDS011;13298;48.792;9.154;2023-05-07T08:28:47;6.75;;;2.80;;
25341;SDS011;13298;48.792;9.154;2023-05-07T08:31:12;4.38;;;3.20;;
25341;SDS011;13298;48.792;9.154;2023-05-07T08:33:38;5.03;;;2.53;;
25341;SDS011;13298;48.792;9.154;2023-05-07T08:36:04;3.80;;;2.38;;
25341;SDS011;13298;48.792;9.154;2023-05-07T08:38:30;4.00;;;2.50;;
25341;SDS011;13298;48.792;9.154;2023-05-07T08:40:56;4.13;;;2.72;;
25341;SDS011;13298;48.792;9.154;2023-05-07T08:43:22;3.15;;;2.60;;
25341;SDS011;13298;48.792;9.154;2023-05-07T08:45:53;3.85;;;2.80;;
25341;SDS011;13298;48.792;9.154;2023-05-07T08:48:20;3.95;;;2.70;;
25341;SDS011;13298;48.792;9.154;2023-05-07T08:50:50;4.72;;;2.33;;
25341;SDS011;13298;48.792;9.154;2023-05-07T08:53:16;2.50;;;1.90;;
25341;SDS011;13298;48.792;9.154;2023-05-07T08:55:42;3.15;;;2.40;;
25341;SDS011;13298;48.792;9.154;2023-05-07T08:58:07;2.80;;;2.40;;
25341;SDS011;13298;48.792;9.154;2023-05-07T09:00:33;5.60;;;2.50;;
25341;SDS011;13298;48.792;9.154;2023-05-07T09:03:01;2.22;;;1.90;;
25341;SDS011;13298;48.792;9.154;2023-05-07T09:05:27;4.82;;;2.50;;
25341;SDS011;13298;48.792;9.154;2023-05-07T09:07:52;6.22;;;1.88;;
25341;SDS011;13298;48.792;9.154;2023-05-07T09:10:20;3.25;;;2.20;;
25341;SDS011;13298;48.792;9.154;2023-05-07T09:12:46;3.60;;;2.42;;
25341;SDS011;13298;48.792;9.154;2023-05-07T09:15:12;3.78;;;2.20;;
25341;SDS011;13298;48.792;9.154;2023-05-07T09:17:38;2.65;;;1.85;;
25341;SDS011;13298;48.792;9.154;2023-05-07T09:20:06;2.72;;;1.90;;
25341;SDS011;13298;48.792;9.154;2023-05-07T09:22:33;3.95;;;1.90;;
25341;SDS011;13298;48.792;9.154;2023-05-07T09:25:01;3.10;;;1.90;;
25341;SDS011;13298;48.792;9.154;2023-05-07T09:27:27;2.15;;;1.73;;
25341;SDS011;13298;48.792;9.154;2023-05-07T09:29:53;3.17;;;2.10;;
25341;SDS011;13298;48.792;9.154;2023-05-07T09:32:19;2.10;;;1.60;;
25341;SDS011;13298;48.792;9.154;2023-05-07T09:34:44;3.72;;;1.90;;
25341;SDS011;13298;48.792;9.154;2023-05-07T09:37:12;2.28;;;1.90;;
25341;SDS011;13298;48.792;9.154;2023-05-07T09:39:42;2.97;;;1.65;;
25341;SDS011;13298;48.792;9.154;2023-05-07T09:42:10;3.63;;;1.83;;
25341;SDS011;13298;48.792;9.154;2023-05-07T09:44:37;1.85;;;1.40;;
25341;SDS011;13298;48.792;9.154;2023-05-07T09:47:07;2.53;;;1.92;;
25341;SDS011;13298;48.792;9.154;2023-05-07T09:49:34;3.03;;;1.90;;
25341;SDS011;13298;48.792;9.154;2023-05-07T09:52:02;2.78;;;1.65;;
25341;SDS011;13298;48.792;9.154;2023-05-07T09:54:35;2.25;;;1.52;;
25341;SDS011;13298;48.792;9.154;2023-05-07T09:57:03;3.55;;;1.83;;
25341;SDS011;13298;48.792;9.154;2023-05-07T09:59:31;2.45;;;1.70;;
25341;SDS011;13298;48.792;9.154;2023-05-07T10:01:58;1.80;;;1.55;;
25341;SDS011;13298;48.792;9.154;2023-05-07T10:04:25;3.55;;;1.60;;
25341;SDS011;13298;48.792;9.154;2023-05-07T10:06:52;2.30;;;1.63;;
25341;SDS011;13298;48.792;9.154;2023-05-07T10:09:19;2.28;;;1.80;;
25341;SDS011;13298;48.792;9.154;2023-05-07T10:11:45;2.72;;;1.73;;
25341;SDS011;13298;48.792;9.154;2023-05-07T10:14:13;3.00;;;1.70;;
25341;SDS011;13298;48.792;9.154;2023-05-07T10:16:40;2.45;;;1.70;;
25341;SDS011;13298;48.792;9.154;2023-05-07T10:19:07;3.03;;;1.80;;
25341;SDS011;13298;48.792;9.154;2023-05-07T10:21:37;2.53;;;1.85;;
25341;SDS011;13298;48.792;9.154;2023-05-07T10:24:05;3.33;;;2.05;;
25341;SDS011;13298;48.792;9.154;2023-05-07T10:26:43;2.13;;;1.60;;
25341;SDS011;13298;48.792;9.154;2023-05-07T10:29:12;3.17;;;1.90;;
25341;SDS011;13298;48.792;9.154;2023-05-07T10:35:16;3.72;;;2.05;;
25341;SDS011;13298;48.792;9.154;2023-05-07T10:37:45;2.80;;;1.73;;
25341;SDS011;13298;48.792;9.154;2023-05-07T10:40:11;2.97;;;2.30;;
25341;SDS011;13298;48.792;9.154;2023-05-07T10:42:38;3.88;;;2.22;;
25341;SDS011;13298;48.792;9.154;2023-05-07T10:45:24;2.20;;;1.67;;
25341;SDS011;13298;48.792;9.154;2023-05-07T10:50:42;4.22;;;2.10;;
25341;SDS011;13298;48.792;9.154;2023-05-07T10:55:47;2.55;;;1.98;;
25341;SDS011;13298;48.792;9.154;2023-05-07T10:58:27;3.67;;;2.05;;
25341;SDS011;13298;48.792;9.154;2023-05-07T11:01:02;3.33;;;1.90;;
25341;SDS011;13298;48.792;9.154;2023-05-07T11:03:28;3.78;;;1.90;;
25341;SDS011;13298;48.792;9.154;2023-05-07T11:06:13;2.67;;;2.25;;
25341;SDS011;13298;48.792;9.154;2023-05-07T11:08:56;2.30;;;1.67;;
25341;SDS011;13298;48.792;9.154;2023-05-07T11:17:11;4.68;;;1.80;;
25341;SDS011;13298;48.792;9.154;2023-05-07T11:19:47;2.58;;;1.80;;
25341;SDS011;13298;48.792;9.154;2023-05-07T11:25:04;2.38;;;1.70;;
25341;SDS011;13298;48.792;9.154;2023-05-07T11:27:31;2.45;;;1.77;;
25341;SDS011;13298;48.792;9.154;2023-05-07T11:29:58;2.75;;;1.98;;
25341;SDS011;13298;48.792;9.154;2023-05-07T11:32:24;3.47;;;1.77;;
25341;SDS011;13298;48.792;9.154;2023-05-07T11:34:52;2.97;;;1.98;;
25341;SDS011;13298;48.792;9.154;2023-05-07T11:37:19;2.28;;;1.67;;
25341;SDS011;13298;48.792;9.154;2023-05-07T11:39:46;3.72;;;1.70;;
25341;SDS011;13298;48.792;9.154;2023-05-07T11:42:25;2.92;;;1.75;;
25341;SDS011;13298;48.792;9.154;2023-05-07T11:44:56;2.38;;;1.90;;
25341;SDS011;13298;48.792;9.154;2023-05-07T11:47:22;4.22;;;1.90;;
25341;SDS011;13298;48.792;9.154;2023-05-07T11:49:51;2.28;;;1.80;;
25341;SDS011;13298;48.792;9.154;2023-05-07T11:52:24;2.83;;;1.90;;
25341;SDS011;13298;48.792;9.154;2023-05-07T11:54:53;5.55;;;2.30;;
25341;SDS011;13298;48.792;9.154;2023-05-07T11:57:21;4.25;;;2.45;;
25341;SDS011;13298;48.792;9.154;2023-05-07T11:59:47;5.47;;;2.60;;
25341;SDS011;13298;48.792;9.154;2023-05-07T12:02:18;4.07;;;2.63;;
25341;SDS011;13298;48.792;9.154;2023-05-07T12:04:44;3.97;;;2.35;;
25341;SDS011;13298;48.792;9.154;2023-05-07T12:07:13;4.32;;;2.30;;
25341;SDS011;13298;48.792;9.154;2023-05-07T12:09:40;2.67;;;2.10;;
25341;SDS011;13298;48.792;9.154;2023-05-07T12:12:06;6.55;;;2.35;;
25341;SDS011;13298;48.792;9.154;2023-05-07T12:14:32;8.30;;;2.63;;
25341;SDS011;13298;48.792;9.154;2023-05-07T12:17:06;3.33;;;2.25;;
25341;SDS011;13298;48.792;9.154;2023-05-07T12:19:34;7.93;;;3.92;;
25341;SDS011;13298;48.792;9.154;2023-05-07T12:22:01;7.88;;;3.28;;
25341;SDS011;13298;48.792;9.154;2023-05-07T12:24:28;7.68;;;2.90;;
25341;SDS011;13298;48.792;9.154;2023-05-07T12:26:54;12.40;;;3.85;;
25341;SDS011;13298;48.792;9.154;2023-05-07T12:29:23;6.35;;;2.78;;
25341;SDS011;13298;48.792;9.154;2023-05-07T12:31:52;4.68;;;1.98;;
25341;SDS011;13298;48.792;9.154;2023-05-07T12:34:17;7.05;;;2.80;;
25341;SDS011;13298;48.792;9.154;2023-05-07T12:36:43;5.75;;;2.25;;
25341;SDS011;13298;48.792;9.154;2023-05-07T12:39:09;9.95;;;2.60;;
25341;SDS011;13298;48.792;9.154;2023-05-07T12:44:24;4.47;;;2.40;;
25341;SDS011;13298;48.792;9.154;2023-05-07T12:46:54;5.32;;;2.28;;
25341;SDS011;13298;48.792;9.154;2023-05-07T12:49:20;6.90;;;2.40;;
25341;SDS011;13298;48.792;9.154;2023-05-07T12:51:47;4.10;;;2.60;;
25341;SDS011;13298;48.792;9.154;2023-05-07T12:54:13;8.13;;;2.50;;
25341;SDS011;13298;48.792;9.154;2023-05-07T12:56:59;6.88;;;2.17;;
25341;SDS011;13298;48.792;9.154;2023-05-07T12:59:36;4.00;;;1.75;;
25341;SDS011;13298;48.792;9.154;2023-05-07T13:04:30;4.90;;;2.10;;
25341;SDS011;13298;48.792;9.154;2023-05-07T13:06:56;4.93;;;2.05;;
25341;SDS011;13298;48.792;9.154;2023-05-07T13:09:21;6.20;;;1.85;;
25341;SDS011;13298;48.792;9.154;2023-05-07T13:11:47;7.00;;;1.63;;
25341;SDS011;13298;48.792;9.154;2023-05-07T13:14:13;3.70;;;1.40;;
25341;SDS011;13298;48.792;9.154;2023-05-07T13:16:38;2.67;;;1.30;;
25341;SDS011;13298;48.792;9.154;2023-05-07T13:19:04;3.05;;;1.20;;
25341;SDS011;13298;48.792;9.154;2023-05-07T13:21:30;2.50;;;1.35;;
25341;SDS011;13298;48.792;9.154;2023-05-07T13:23:58;3.65;;;1.88;;
25341;SDS011;13298;48.792;9.154;2023-05-07T13:26:24;5.47;;;1.63;;
25341;SDS011;13298;48.792;9.154;2023-05-07T13:28:51;3.58;;;1.73;;
25341;SDS011;13298;48.792;9.154;2023-05-07T13:31:20;3.63;;;1.70;;
25341;SDS011;13298;48.792;9.154;2023-05-07T13:33:46;2.65;;;1.50;;
25341;SDS011;13298;48.792;9.154;2023-05-07T13:36:11;2.47;;;1.38;;
25341;SDS011;13298;48.792;9.154;2023-05-07T13:38:38;3.55;;;1.55;;
25341;SDS011;13298;48.792;9.154;2023-05-07T13:41:04;2.75;;;1.92;;
25341;SDS011;13298;48.792;9.154;2023-05-07T13:43:30;3.00;;;1.70;;
25341;SDS011;13298;48.792;9.154;2023-05-07T13:45:58;1.90;;;1.52;;
25341;SDS011;13298;48.792;9.154;2023-05-07T13:48:24;2.70;;;1.80;;
25341;SDS011;13298;48.792;9.154;2023-05-07T13:50:50;2.65;;;1.55;;
25341;SDS011;13298;48.792;9.154;2023-05-07T13:53:16;2.50;;;1.73;;
25341;SDS011;13298;48.792;9.154;2023-05-07T13:55:43;2.45;;;1.60;;
25341;SDS011;13298;48.792;9.154;2023-05-07T13:58:11;3.20;;;1.63;;
25341;SDS011;13298;48.792;9.154;2023-05-07T14:00:37;1.75;;;1.40;;
25341;SDS011;13298;48.792;9.154;2023-05-07T14:03:04;1.95;;;1.40;;
25341;SDS011;13298;48.792;9.154;2023-05-07T14:05:30;2.95;;;1.30;;
25341;SDS011;13298;48.792;9.154;2023-05-07T14:07:56;1.50;;;1.30;;
25341;SDS011;13298;48.792;9.154;2023-05-07T14:10:23;3.72;;;1.30;;
25341;SDS011;13298;48.792;9.154;2023-05-07T14:12:49;3.05;;;1.50;;
25341;SDS011;13298;48.792;9.154;2023-05-07T14:15:15;2.58;;;1.13;;
25341;SDS011;13298;48.792;9.154;2023-05-07T14:17:41;2.30;;;1.42;;
25341;SDS011;13298;48.792;9.154;2023-05-07T14:20:08;2.90;;;1.48;;
25341;SDS011;13298;48.792;9.154;2023-05-07T14:22:35;2.25;;;1.35;;
25341;SDS011;13298;48.792;9.154;2023-05-07T14:25:01;2.95;;;1.88;;
25341;SDS011;13298;48.792;9.154;2023-05-07T14:27:26;3.22;;;1.75;;
25341;SDS011;13298;48.792;9.154;2023-05-07T14:29:52;2.67;;;2.03;;
25341;SDS011;13298;48.792;9.154;2023-05-07T14:32:18;4.00;;;2.25;;
25341;SDS011;13298;48.792;9.154;2023-05-07T14:34:44;10.52;;;2.63;;
25341;SDS011;13298;48.792;9.154;2023-05-07T14:37:10;6.22;;;2.03;;
25341;SDS011;13298;48.792;9.154;2023-05-07T14:39:36;4.50;;;1.75;;
25341;SDS011;13298;48.792;9.154;2023-05-07T14:42:02;6.28;;;2.00;;
25341;SDS011;13298;48.792;9.154;2023-05-07T14:44:27;4.47;;;1.70;;
25341;SDS011;13298;48.792;9.154;2023-05-07T14:46:54;4.20;;;2.10;;
25341;SDS011;13298;48.792;9.154;2023-05-07T14:49:20;2.33;;;2.00;;
25341;SDS011;13298;48.792;9.154;2023-05-07T14:51:46;4.45;;;1.88;;
25341;SDS011;13298;48.792;9.154;2023-05-07T14:54:12;2.33;;;1.55;;
25341;SDS011;13298;48.792;9.154;2023-05-07T14:56:39;2.42;;;1.52;;
25341;SDS011;13298;48.792;9.154;2023-05-07T14:59:06;3.75;;;1.80;;
25341;SDS011;13298;48.792;9.154;2023-05-07T15:01:34;3.60;;;1.80;;
25341;SDS011;13298;48.792;9.154;2023-05-07T15:04:00;2.90;;;1.58;;
25341;SDS011;13298;48.792;9.154;2023-05-07T15:06:28;2.63;;;1.40;;
25341;SDS011;13298;48.792;9.154;2023-05-07T15:08:54;2.95;;;1.48;;
25341;SDS011;13298;48.792;9.154;2023-05-07T15:11:20;1.55;;;1.27;;